McHenry, IL

9:04 PM CST on January 29, 2015 (GMT -0600)
Orchard Beach | Change Station
CLOSE
Current Station
Personal Weather Station
Location: McHenry, IL
Elevation: 768 ft
Nearby Weather Stations

Elev 768 ft 42.36 °N, 88.25 °W | Updated 13 minutes ago

Overcast
Overcast
32.2 °F
Feels Like 32 °F
N
1.7
Wind Variable Wind from SW

Today
High -- | Low -- °F
--% Chance of Precip.
Yesterday
High -- | Low -- °F
Precip. -- in
7:09 AM 5:03 PM
Waxing Gibbous, 79% visible
Pressure 30.25 in
Visibility 10.0 miles
Clouds Mostly Cloudy 4300 ft
Overcast 5000 ft
Windchill 32 °F
Dew Point 22 °F
Humidity 66%
Rainfall 0.00 in
Snow Depth Not available.
UV 0 out of 12
Pollen .10 out of 12
Air Quality Not available.
Flu Activity Not available.
METAR KUGN 300255Z 30011G22KT 10SM BKN043 OVC050 01/M08 A3021 RMK AO2 SLP243 T00061078 51027

More Conditions Fewer Conditions

Pressure 30.25 in
Visibility 10.0 miles
Clouds Mostly Cloudy 4300 ft
Overcast 5000 ft
Windchill 32 °F
Dew Point 22 °F
Humidity 66%
Rainfall 0.00 in
Snow Depth Not available.
UV 0 out of 12
Pollen .10 out of 12
Air Quality Not available.
Flu Activity Not available.
METAR KUGN 300255Z 30011G22KT 10SM BKN043 OVC050 01/M08 A3021 RMK AO2 SLP243 T00061078 51027

More Conditions Fewer Conditions

10-Day Weather Forecast

Almanac

Astronomy

Jan. 29, 2015 Rise Set
Actual Time
Civil Twilight
Nautical Twilight
Astronomical Twilight
Moon
Length of Visible Light
Length of Day
Tomorrow will be .
, % of the Moon is Illuminated

Today's Extremes

State Highs State Lows

Community

WunderPhotos

Upload Photos

1,791,701 photos uploaded!

WunderBlogs® & News

Nearby

Air Quality

  Air Quality AQ Index Pollutant
Not available.

Snow Depth

Station Depth Elevation

Earthquake Activity

City Distance Mag. Time & Date
Minimum magnitude displayed is 2.5.

Coastal Water Temperatures

Place Temperature

Nearby Weather Stations